createdAt,value
2019-05-25T00:01:43.984Z,15.50
2019-05-25T00:04:12.432Z,20.02
2019-05-25T00:06:40.874Z,15.43
2019-05-25T00:09:09.301Z,18.23
2019-05-25T00:11:37.753Z,16.10
2019-05-25T00:14:06.181Z,17.92
2019-05-25T00:16:34.625Z,16.02
2019-05-25T00:19:03.118Z,16.02
2019-05-25T00:24:12.076Z,18.75
2019-05-25T00:26:36.021Z,21.68
2019-05-25T00:29:04.448Z,18.52
2019-05-25T00:31:32.908Z,15.50
2019-05-25T00:34:01.336Z,20.57
2019-05-25T00:36:29.777Z,12.80
2019-05-25T00:38:58.200Z,11.88
2019-05-25T00:41:26.646Z,14.78
2019-05-25T00:43:55.067Z,11.18
2019-05-25T00:46:23.489Z,18.45
2019-05-25T00:48:51.935Z,11.88
2019-05-25T00:51:20.360Z,16.50
2019-05-25T00:53:48.812Z,15.08
2019-05-25T00:56:17.235Z,15.10
2019-05-25T00:59:06.384Z,10.03
2019-05-25T01:01:34.768Z,10.93
2019-05-25T01:04:03.209Z,9.58
2019-05-25T01:06:31.626Z,9.28
2019-05-25T01:09:00.065Z,14.33
2019-05-25T01:11:28.491Z,12.10
2019-05-25T01:13:56.936Z,14.90
2019-05-25T01:16:27.231Z,14.90
2019-05-25T01:18:58.448Z,15.60
2019-05-25T01:21:26.852Z,13.98
2019-05-25T01:23:57.821Z,12.93
2019-05-25T01:28:54.378Z,11.93
2019-05-25T01:31:23.418Z,9.10
2019-05-25T01:33:56.806Z,10.38
2019-05-25T01:39:16.918Z,12.75
2019-05-25T01:41:46.156Z,12.73
2019-05-25T01:44:16.149Z,14.05
2019-05-25T01:46:45.187Z,12.40
2019-05-25T01:49:13.600Z,14.63
2019-05-25T01:51:42.032Z,12.58
2019-05-25T01:54:10.450Z,14.65
2019-05-25T01:56:38.894Z,15.93
2019-05-25T01:59:07.312Z,11.90
2019-05-25T02:01:35.756Z,13.98
2019-05-25T02:04:04.169Z,11.03
2019-05-25T02:06:32.609Z,13.45
2019-05-25T02:09:01.048Z,11.40
2019-05-25T02:11:29.505Z,10.65
2019-05-25T02:13:58.739Z,12.15
2019-05-25T02:16:27.137Z,11.20
2019-05-25T02:18:56.377Z,16.07
2019-05-25T02:21:24.800Z,10.30
2019-05-25T02:23:53.232Z,8.48
2019-05-25T02:26:21.640Z,9.50
2019-05-25T02:28:50.080Z,9.05
2019-05-25T02:31:19.465Z,10.72
2019-05-25T02:33:47.911Z,10.10
2019-05-25T02:36:16.324Z,10.15
2019-05-25T02:38:45.590Z,13.62
2019-05-25T02:41:14.027Z,13.75
2019-05-25T02:43:46.793Z,14.70
2019-05-25T02:46:15.400Z,15.03
2019-05-25T02:48:43.820Z,11.57
2019-05-25T02:51:12.255Z,11.55
2019-05-25T02:53:40.844Z,11.03
2019-05-25T02:56:11.881Z,13.70
2019-05-25T02:58:41.413Z,15.15
2019-05-25T03:01:09.881Z,13.72
2019-05-25T03:03:38.335Z,11.57
2019-05-25T03:06:07.579Z,14.90
2019-05-25T03:08:36.468Z,13.18
2019-05-25T03:11:04.928Z,12.43
2019-05-25T03:13:33.391Z,12.13
2019-05-25T03:16:01.838Z,13.78
2019-05-25T03:18:49.616Z,14.73
2019-05-25T03:21:18.077Z,13.80
2019-05-25T03:23:46.509Z,12.05
2019-05-25T03:26:14.968Z,14.45
2019-05-25T03:28:43.422Z,13.65
2019-05-25T03:31:11.872Z,13.25
2019-05-25T03:33:41.364Z,13.90
2019-05-25T03:36:09.756Z,14.75
2019-05-25T03:38:57.603Z,14.95
2019-05-25T03:41:26.015Z,13.80
2019-05-25T03:43:54.468Z,19.92
2019-05-25T03:46:22.928Z,11.83
2019-05-25T03:48:51.449Z,18.20
2019-05-25T03:51:19.955Z,15.45
2019-05-25T03:53:48.402Z,19.15
2019-05-25T03:56:16.844Z,19.37
2019-05-25T03:58:45.301Z,20.60
2019-05-25T04:01:13.773Z,14.47
2019-05-25T04:03:42.194Z,16.65
2019-05-25T04:06:10.641Z,20.62
2019-05-25T04:08:39.081Z,16.40
2019-05-25T04:11:07.532Z,22.37
2019-05-25T04:13:36.020Z,16.82
2019-05-25T04:16:04.587Z,18.00
2019-05-25T04:18:33.318Z,16.45
2019-05-25T04:21:01.769Z,18.65
2019-05-25T04:23:30.195Z,17.77
2019-05-25T04:25:59.574Z,17.60
2019-05-25T04:28:28.004Z,19.77
2019-05-25T04:30:56.467Z,19.30
2019-05-25T04:33:24.879Z,19.45
2019-05-25T04:35:53.361Z,20.97
2019-05-25T04:38:21.779Z,21.27
2019-05-25T04:40:50.249Z,18.30
2019-05-25T04:43:18.674Z,19.62
2019-05-25T04:45:47.121Z,19.52
2019-05-25T04:48:15.549Z,16.00
2019-05-25T04:50:44.055Z,18.10
2019-05-25T04:53:12.509Z,17.42
2019-05-25T04:55:40.942Z,16.75
2019-05-25T04:58:09.414Z,18.52
2019-05-25T05:00:37.909Z,14.25
2019-05-25T05:03:06.422Z,14.53
2019-05-25T05:05:34.861Z,17.20
2019-05-25T05:08:03.321Z,18.23
2019-05-25T05:10:31.805Z,16.90
2019-05-25T05:13:00.269Z,20.12
2019-05-25T05:15:28.682Z,16.70
2019-05-25T05:17:57.678Z,14.78
2019-05-25T05:20:26.111Z,15.13
2019-05-25T05:23:13.924Z,17.73
2019-05-25T05:25:42.361Z,19.50
2019-05-25T05:35:54.215Z,19.10
2019-05-25T05:38:22.701Z,15.88
2019-05-25T05:40:51.144Z,19.12
2019-05-25T05:43:19.576Z,15.15
2019-05-25T05:45:49.625Z,18.73
2019-05-25T05:48:18.176Z,20.13
2019-05-25T05:50:46.643Z,19.65
2019-05-25T05:53:17.352Z,18.67
2019-05-25T05:55:45.794Z,18.55
2019-05-25T05:58:14.218Z,14.43
2019-05-25T06:00:42.738Z,14.73
2019-05-25T06:03:11.153Z,16.25
2019-05-25T06:05:39.648Z,15.15
2019-05-25T06:08:08.114Z,17.90
2019-05-25T06:10:37.156Z,14.78
2019-05-25T06:13:05.597Z,16.70
2019-05-25T06:15:34.039Z,12.70
2019-05-25T06:18:02.502Z,15.63
2019-05-25T06:20:30.933Z,17.30
2019-05-25T06:22:59.420Z,13.50
2019-05-25T06:25:27.887Z,12.43
2019-05-25T06:27:56.373Z,14.93
2019-05-25T06:30:24.901Z,16.23
2019-05-25T06:32:53.352Z,11.78
2019-05-25T06:35:21.777Z,11.70
2019-05-25T06:37:50.257Z,11.12
2019-05-25T06:40:18.726Z,8.13
2019-05-25T06:50:29.699Z,7.50
2019-05-25T06:58:21.278Z,8.50
2019-05-25T07:00:49.715Z,11.70
2019-05-25T07:03:18.288Z,10.13
2019-05-25T07:05:46.727Z,12.35
2019-05-25T07:08:15.416Z,12.63
2019-05-25T07:10:45.758Z,12.65
2019-05-25T07:13:18.081Z,11.03
2019-05-25T07:15:46.477Z,7.37
2019-05-25T07:18:14.996Z,9.33
2019-05-25T07:20:43.548Z,9.65
2019-05-25T07:23:12.040Z,7.62
2019-05-25T07:28:16.204Z,9.90
2019-05-25T07:30:46.568Z,9.90
2019-05-25T07:33:16.116Z,10.48
2019-05-25T07:38:19.304Z,14.73
2019-05-25T07:40:47.851Z,10.78
2019-05-25T07:43:16.397Z,9.73
2019-05-25T07:45:44.851Z,10.23
2019-05-25T07:48:13.360Z,10.20
2019-05-25T07:50:41.932Z,8.30
2019-05-25T07:53:10.389Z,8.05
2019-05-25T07:55:40.453Z,7.83
2019-05-25T07:58:17.584Z,10.27
2019-05-25T08:00:39.038Z,10.43
2019-05-25T08:03:17.588Z,7.95
2019-05-25T08:05:43.222Z,10.60
2019-05-25T08:08:11.717Z,7.97
2019-05-25T08:10:40.130Z,7.85
2019-05-25T08:13:08.607Z,4.85
2019-05-25T08:15:37.082Z,8.50
2019-05-25T08:18:05.593Z,7.05
2019-05-25T08:20:34.039Z,6.20
2019-05-25T08:23:41.160Z,6.72
2019-05-25T08:26:09.564Z,5.17
2019-05-25T08:28:38.017Z,8.73
2019-05-25T08:31:06.464Z,5.05
2019-05-25T08:33:34.932Z,6.25
2019-05-25T08:36:03.348Z,7.28
2019-05-25T08:38:31.798Z,9.55
2019-05-25T08:41:00.260Z,6.97
2019-05-25T08:43:28.669Z,4.55
2019-05-25T08:45:57.130Z,6.47
2019-05-25T08:48:25.573Z,6.70
2019-05-25T08:50:54.049Z,8.13
2019-05-25T08:53:39.600Z,5.15
2019-05-25T08:55:52.635Z,14.55
2019-05-25T08:58:21.132Z,6.78
2019-05-25T09:00:49.571Z,8.08
2019-05-25T09:03:17.983Z,5.70
2019-05-25T09:05:46.429Z,9.03
2019-05-25T09:08:14.837Z,5.80
2019-05-25T09:10:43.316Z,6.90
2019-05-25T09:13:11.744Z,6.78
2019-05-25T09:15:40.193Z,7.08
2019-05-25T09:18:08.637Z,7.20
2019-05-25T09:20:37.068Z,3.83
2019-05-25T09:23:24.869Z,9.10
2019-05-25T09:25:53.287Z,4.65
2019-05-25T09:28:21.737Z,3.50
2019-05-25T09:30:50.149Z,3.33
2019-05-25T09:33:18.578Z,5.78
2019-05-25T09:35:46.991Z,3.70
2019-05-25T09:38:15.430Z,6.12
2019-05-25T09:40:43.845Z,6.95
2019-05-25T09:43:12.290Z,6.40
2019-05-25T09:45:40.699Z,3.62
2019-05-25T09:48:09.175Z,4.03
2019-05-25T09:50:37.558Z,5.00
2019-05-25T09:53:06.001Z,2.62
2019-05-25T09:55:34.417Z,4.58
2019-05-25T09:58:02.876Z,2.83
2019-05-25T10:00:31.400Z,1.98
2019-05-25T10:02:59.840Z,6.67
2019-05-25T10:05:28.279Z,3.30
2019-05-25T10:07:56.704Z,2.80
2019-05-25T10:10:25.168Z,2.45
2019-05-25T10:12:53.593Z,2.87
2019-05-25T10:15:22.051Z,4.58
2019-05-25T10:17:50.457Z,2.98
2019-05-25T10:20:18.892Z,2.60
2019-05-25T10:22:47.307Z,1.32
2019-05-25T10:25:15.755Z,2.95
2019-05-25T10:27:44.168Z,4.25
2019-05-25T10:30:12.607Z,8.73
2019-05-25T10:32:41.079Z,3.80
2019-05-25T10:35:09.532Z,1.60
2019-05-25T10:37:37.966Z,2.95
2019-05-25T10:40:06.897Z,4.95
2019-05-25T10:42:35.324Z,3.58
2019-05-25T10:45:05.141Z,8.73
2019-05-25T10:47:33.581Z,3.20
2019-05-25T10:50:02.006Z,2.65
2019-05-25T10:52:30.450Z,3.67
2019-05-25T10:54:58.866Z,2.37
2019-05-25T10:57:47.600Z,2.50
2019-05-25T11:00:16.011Z,3.27
2019-05-25T11:02:44.444Z,3.65
2019-05-25T11:05:12.866Z,1.22
2019-05-25T11:07:41.806Z,1.17
2019-05-25T11:10:10.218Z,3.37
2019-05-25T11:12:38.664Z,5.37
2019-05-25T11:15:08.187Z,4.65
2019-05-25T11:17:36.620Z,5.80
2019-05-25T11:20:06.635Z,3.25
2019-05-25T11:22:35.053Z,2.77
2019-05-25T11:25:04.497Z,6.58
2019-05-25T11:27:32.908Z,4.70
2019-05-25T11:30:08.967Z,2.15
2019-05-25T11:32:31.411Z,7.37
2019-05-25T11:34:59.852Z,2.62
2019-05-25T11:37:28.267Z,4.58
2019-05-25T11:39:56.700Z,5.12
2019-05-25T11:42:25.112Z,3.98
2019-05-25T11:44:53.551Z,5.33
2019-05-25T11:47:21.986Z,3.33
2019-05-25T11:49:50.416Z,5.60
2019-05-25T11:52:18.854Z,6.00
2019-05-25T11:54:47.274Z,5.47
2019-05-25T11:57:15.735Z,2.98
2019-05-25T11:59:44.136Z,4.67
2019-05-25T12:02:12.583Z,1.40
2019-05-25T12:04:41.001Z,3.67
2019-05-25T12:07:09.445Z,2.80
2019-05-25T12:09:37.884Z,1.92
2019-05-25T12:12:06.306Z,4.08
2019-05-25T12:14:34.725Z,2.60
2019-05-25T12:17:03.216Z,5.47
2019-05-25T12:19:31.704Z,11.93
2019-05-25T12:27:08.977Z,1.95
2019-05-25T12:29:37.408Z,16.37
2019-05-25T12:32:05.850Z,3.20
2019-05-25T12:34:34.260Z,3.83
2019-05-25T12:37:02.701Z,5.12
2019-05-25T12:39:31.115Z,3.30
2019-05-25T12:41:59.571Z,10.38
2019-05-25T12:44:28.004Z,5.53
2019-05-25T12:46:56.436Z,8.90
2019-05-25T12:49:24.876Z,4.60
2019-05-25T12:51:53.289Z,5.33
2019-05-25T12:54:21.723Z,6.05
2019-05-25T12:56:50.132Z,2.62
2019-05-25T12:59:18.627Z,4.50
2019-05-25T13:01:47.033Z,5.00
2019-05-25T13:04:15.463Z,2.58
2019-05-25T13:06:43.892Z,4.50
2019-05-25T13:09:12.317Z,4.45
2019-05-25T13:11:40.740Z,7.58
2019-05-25T13:14:14.530Z,2.50
2019-05-25T13:16:39.423Z,6.55
2019-05-25T13:19:07.875Z,2.62
2019-05-25T13:21:36.293Z,4.12
2019-05-25T13:24:04.739Z,5.45
2019-05-25T13:26:33.202Z,4.67
2019-05-25T13:29:01.624Z,3.20
2019-05-25T13:31:30.069Z,5.92
2019-05-25T13:33:58.492Z,3.58
2019-05-25T13:36:26.934Z,3.27
2019-05-25T13:38:55.345Z,4.92
2019-05-25T13:41:23.784Z,1.98
2019-05-25T13:43:52.213Z,3.77
2019-05-25T13:46:20.653Z,3.08
2019-05-25T13:48:49.064Z,6.37
2019-05-25T13:51:17.503Z,7.42
2019-05-25T13:53:45.931Z,5.00
2019-05-25T13:56:14.369Z,6.97
2019-05-25T13:58:42.774Z,7.28
2019-05-25T14:01:25.630Z,9.08
2019-05-25T14:03:41.281Z,8.65
2019-05-25T14:06:09.715Z,3.55
2019-05-25T14:08:38.152Z,3.83
2019-05-25T14:11:06.565Z,2.87
2019-05-25T14:13:35.008Z,6.20
2019-05-25T14:16:07.307Z,6.53
2019-05-25T14:18:33.512Z,5.70
2019-05-25T14:21:01.929Z,7.80
2019-05-25T14:23:30.365Z,1.90
2019-05-25T14:25:58.801Z,4.33
2019-05-25T14:28:27.248Z,6.10
2019-05-25T14:30:55.674Z,5.15
2019-05-25T14:33:24.112Z,6.53
2019-05-25T14:35:52.545Z,7.35
2019-05-25T14:38:20.996Z,7.33
2019-05-25T14:40:49.422Z,3.35
2019-05-25T14:43:17.863Z,5.53
2019-05-25T14:45:46.301Z,4.08
2019-05-25T14:48:14.838Z,6.95
2019-05-25T14:50:43.292Z,5.03
2019-05-25T14:53:11.712Z,5.72
2019-05-25T14:55:40.266Z,5.45
2019-05-25T14:58:08.687Z,1.47
2019-05-25T15:00:37.522Z,3.12
2019-05-25T15:03:05.947Z,4.97
2019-05-25T15:05:34.398Z,13.85
2019-05-25T15:08:02.816Z,4.03
2019-05-25T15:10:31.266Z,1.85
2019-05-25T15:12:59.705Z,2.95
2019-05-25T15:15:28.148Z,4.12
2019-05-25T15:17:56.570Z,4.15
2019-05-25T15:20:25.027Z,9.75
2019-05-25T15:22:53.461Z,10.43
2019-05-25T15:25:21.886Z,5.55
2019-05-25T15:27:50.309Z,6.62
2019-05-25T15:30:22.780Z,3.77
2019-05-25T15:32:51.230Z,3.30
2019-05-25T15:35:21.258Z,5.37
2019-05-25T15:37:49.847Z,2.63
2019-05-25T15:40:18.371Z,7.60
2019-05-25T15:42:46.943Z,2.05
2019-05-25T15:45:15.476Z,5.40
2019-05-25T15:47:44.167Z,2.83
2019-05-25T15:50:12.745Z,8.50
2019-05-25T15:53:14.169Z,4.53
2019-05-25T15:55:42.631Z,3.72
2019-05-25T15:58:12.762Z,6.35
2019-05-25T16:00:48.938Z,4.43
2019-05-25T16:03:16.066Z,4.72
2019-05-25T16:05:47.584Z,5.40
2019-05-25T16:08:15.209Z,6.60
2019-05-25T16:10:43.849Z,4.03
2019-05-25T16:13:12.440Z,2.45
2019-05-25T16:15:43.090Z,4.33
2019-05-25T16:18:11.796Z,4.45
2019-05-25T16:20:40.252Z,5.30
2019-05-25T16:23:09.126Z,8.20
2019-05-25T16:25:37.625Z,5.75
2019-05-25T16:28:08.341Z,1.87
2019-05-25T16:30:38.208Z,2.45
2019-05-25T16:33:12.591Z,2.08
2019-05-25T16:35:39.700Z,4.60
2019-05-25T16:38:08.485Z,3.83
2019-05-25T16:40:37.471Z,2.35
2019-05-25T16:43:06.087Z,6.08
2019-05-25T16:45:34.689Z,7.10
2019-05-25T16:48:03.871Z,9.00
2019-05-25T16:50:52.431Z,3.92
2019-05-25T16:53:20.928Z,6.00
2019-05-25T16:55:54.426Z,4.47
2019-05-25T16:58:25.343Z,3.12
2019-05-25T17:00:55.601Z,7.65
2019-05-25T17:03:28.700Z,5.22
2019-05-25T17:05:54.180Z,2.17
2019-05-25T17:08:22.806Z,3.58
2019-05-25T17:10:52.817Z,1.85
2019-05-25T17:13:21.274Z,3.57
2019-05-25T17:15:49.675Z,2.10
2019-05-25T17:18:18.119Z,1.72
2019-05-25T17:20:46.546Z,2.92
2019-05-25T17:23:15.090Z,7.97
2019-05-25T17:25:43.506Z,2.10
2019-05-25T17:28:12.000Z,2.22
2019-05-25T17:30:41.790Z,2.47
2019-05-25T17:33:10.489Z,1.65
2019-05-25T17:35:38.924Z,2.22
2019-05-25T17:38:09.610Z,2.55
2019-05-25T17:40:38.064Z,5.58
2019-05-25T17:43:06.557Z,3.92
2019-05-25T17:45:35.174Z,4.40
2019-05-25T17:48:08.623Z,2.10
2019-05-25T17:50:36.756Z,4.47
2019-05-25T17:53:05.176Z,7.00
2019-05-25T17:55:33.633Z,8.05
2019-05-25T17:58:02.030Z,6.83
2019-05-25T18:00:37.638Z,3.77
2019-05-25T18:03:06.052Z,4.97
2019-05-25T18:05:34.520Z,4.03
2019-05-25T18:08:03.149Z,4.92
2019-05-25T18:10:31.881Z,5.50
2019-05-25T18:13:01.553Z,4.45
2019-05-25T18:15:34.560Z,6.70
2019-05-25T18:18:03.001Z,5.78
2019-05-25T18:20:31.487Z,5.12
2019-05-25T18:22:59.944Z,3.33
2019-05-25T18:25:31.017Z,3.47
2019-05-25T18:27:59.438Z,6.90
2019-05-25T18:30:27.883Z,4.28
2019-05-25T18:32:56.344Z,6.60
2019-05-25T18:35:26.002Z,2.55
2019-05-25T18:38:01.162Z,4.95
2019-05-25T18:40:29.928Z,3.60
2019-05-25T18:43:04.366Z,4.20
2019-05-25T18:45:39.591Z,2.42
2019-05-25T18:48:08.058Z,4.37
2019-05-25T18:50:36.473Z,3.60
2019-05-25T18:53:04.943Z,3.22
2019-05-25T18:55:33.372Z,5.40
2019-05-25T18:58:01.815Z,6.45
2019-05-25T19:00:30.217Z,3.87
2019-05-25T19:02:58.646Z,2.08
2019-05-25T19:05:46.485Z,5.33
2019-05-25T19:08:14.906Z,5.45
2019-05-25T19:10:43.440Z,2.55
2019-05-25T19:13:11.889Z,4.12
2019-05-25T19:28:31.079Z,4.67
2019-05-25T19:30:59.653Z,4.87
2019-05-25T19:33:38.916Z,2.55
2019-05-25T19:36:43.962Z,4.75
2019-05-25T19:40:07.915Z,2.20
2019-05-25T19:45:27.868Z,1.20
2019-05-25T19:47:56.390Z,5.10
2019-05-25T19:50:24.899Z,1.98
2019-05-25T19:52:53.359Z,2.80
2019-05-25T19:55:23.385Z,2.92
2019-05-25T19:57:53.075Z,0.90
2019-05-25T20:00:23.102Z,1.10
2019-05-25T20:02:51.748Z,2.00
2019-05-25T20:08:44.111Z,4.25
2019-05-25T20:11:12.580Z,2.12
2019-05-25T20:13:41.186Z,4.60
2019-05-25T20:16:09.629Z,4.30
2019-05-25T20:18:38.095Z,1.67
2019-05-25T20:21:06.497Z,2.47
2019-05-25T20:23:34.950Z,2.15
2019-05-25T20:26:03.384Z,2.22
2019-05-25T20:28:50.555Z,3.90
2019-05-25T20:31:18.794Z,6.50
2019-05-25T20:36:27.593Z,8.35
2019-05-25T20:38:56.006Z,16.73
2019-05-25T20:41:24.640Z,20.95
2019-05-25T20:43:54.539Z,15.55
2019-05-25T20:46:27.361Z,16.55
2019-05-25T20:54:13.167Z,11.90
2019-05-25T20:56:41.678Z,11.80
2019-05-25T20:59:20.810Z,15.13
2019-05-25T21:07:40.412Z,9.83
2019-05-25T21:10:09.527Z,7.72
2019-05-25T21:12:56.372Z,9.08
2019-05-25T21:20:35.155Z,5.00
2019-05-25T21:23:03.666Z,5.72
2019-05-25T21:25:32.078Z,6.10
2019-05-25T21:28:00.497Z,7.92
2019-05-25T21:30:28.934Z,2.92
2019-05-25T21:32:57.386Z,6.70
2019-05-25T21:35:25.810Z,5.45
2019-05-25T21:37:54.255Z,5.30
2019-05-25T21:40:22.701Z,6.70
2019-05-25T21:42:51.137Z,4.53
2019-05-25T21:45:19.557Z,2.92
2019-05-25T21:47:48.023Z,7.85
2019-05-25T21:50:16.426Z,4.65
2019-05-25T21:52:44.869Z,5.70
2019-05-25T21:55:13.304Z,5.08
2019-05-25T21:57:41.763Z,9.85
2019-05-25T22:00:11.853Z,6.58
2019-05-25T22:02:40.286Z,3.70
2019-05-25T22:05:09.298Z,5.75
2019-05-25T22:07:37.736Z,3.58
2019-05-25T22:10:06.163Z,4.25
2019-05-25T22:12:34.598Z,4.42
2019-05-25T22:15:03.470Z,4.80
2019-05-25T22:17:53.379Z,4.75
2019-05-25T22:20:21.813Z,6.00
2019-05-25T22:22:50.243Z,4.87
2019-05-25T22:25:18.723Z,4.22
2019-05-25T22:27:47.125Z,2.98
2019-05-25T22:30:15.592Z,1.67
2019-05-25T22:32:44.047Z,1.80
2019-05-25T22:35:12.469Z,1.55
2019-05-25T22:37:40.916Z,2.67
2019-05-25T22:40:09.406Z,3.45
2019-05-25T22:42:37.825Z,1.60
2019-05-25T22:45:06.788Z,1.57
2019-05-25T22:47:54.587Z,2.10
2019-05-25T22:50:23.059Z,3.42
2019-05-25T22:52:51.473Z,3.00
2019-05-25T22:55:19.914Z,3.17
2019-05-25T22:57:48.367Z,6.20
2019-05-25T23:00:17.368Z,3.65
2019-05-25T23:02:45.884Z,4.08
2019-05-25T23:05:14.289Z,5.55
2019-05-25T23:07:42.751Z,2.55
2019-05-25T23:10:11.192Z,1.82
2019-05-25T23:12:39.691Z,2.95
2019-05-25T23:15:08.189Z,4.22
2019-05-25T23:17:36.838Z,2.33
2019-05-25T23:20:06.182Z,5.03
2019-05-25T23:22:34.636Z,2.95
2019-05-25T23:25:03.202Z,2.87
2019-05-25T23:27:31.613Z,3.42
2019-05-25T23:30:00.127Z,2.60
2019-05-25T23:32:28.615Z,5.10
2019-05-25T23:34:57.062Z,4.28
2019-05-25T23:37:25.517Z,3.12
2019-05-25T23:39:53.983Z,2.30
2019-05-25T23:42:22.367Z,4.80
2019-05-25T23:44:50.829Z,4.03
2019-05-25T23:47:19.284Z,2.87
2019-05-25T23:49:47.735Z,3.85
2019-05-25T23:52:16.199Z,5.40
2019-05-25T23:54:44.638Z,5.50
2019-05-25T23:57:13.078Z,3.08
2019-05-25T23:59:41.509Z,5.53
